Time;durP1;ratioP1;P1;durP2;ratioP2;P2;SDS_P1;SDS_P2;PMS_P1;PMS_P2;Temp;Humidity;BMP_temperature;BMP_pressure;BME280_temperature;BME280_humidity;BME280_pressure;Samples;Min_cycle;Max_cycle;Signal;HPM_P1;HPM_P2
2022/05/07 00:01:56;;;;;;;5.85;4.07;;;13.50;48.70;;;;;;5090038;28;20116;-57
2022/05/07 00:04:22;;;;;;;5.57;4.05;;;13.40;48.60;;;;;;5093639;28;20035;-57
2022/05/07 00:06:49;;;;;;;6.22;4.43;;;13.40;48.50;;;;;;5095091;28;20570;-57
2022/05/07 00:09:14;;;;;;;7.70;4.93;;;13.40;48.60;;;;;;5082200;28;20115;-56
2022/05/07 00:11:40;;;;;;;7.65;5.00;;;13.30;48.70;;;;;;5094156;28;20107;-57
2022/05/07 00:14:07;;;;;;;7.53;5.00;;;13.30;48.80;;;;;;5093415;28;20028;-57
2022/05/07 00:19:17;;;;;;;6.38;4.95;;;13.30;48.60;;;;;;5095380;28;20539;-56
2022/05/07 00:21:43;;;;;;;8.18;5.00;;;13.20;48.50;;;;;;5085676;28;20017;-57
2022/05/07 00:24:09;;;;;;;7.20;5.10;;;13.20;48.40;;;;;;5074480;28;20445;-57
2022/05/07 00:26:34;;;;;;;7.95;5.63;;;13.20;48.20;;;;;;5074571;28;20036;-57
2022/05/07 00:29:00;;;;;;;7.85;5.40;;;13.20;48.20;;;;;;5076036;28;20025;-57
2022/05/07 00:31:25;;;;;;;8.98;5.53;;;13.20;48.20;;;;;;5085600;28;20028;-57
2022/05/07 00:33:51;;;;;;;8.82;5.82;;;13.20;48.10;;;;;;5075040;28;20032;-56
2022/05/07 00:36:17;;;;;;;9.40;5.45;;;13.20;48.10;;;;;;5094456;28;20060;-57
2022/05/07 00:38:42;;;;;;;8.05;5.40;;;13.20;48.10;;;;;;5092498;28;20073;-57
2022/05/07 00:41:09;;;;;;;7.78;5.40;;;13.20;48.10;;;;;;5089156;28;20024;-57
2022/05/07 00:43:40;;;;;;;8.23;5.78;;;13.20;48.00;;;;;;5089841;28;20023;-57
2022/05/07 00:46:12;;;;;;;10.48;6.35;;;13.20;48.00;;;;;;5056544;28;20041;-58
2022/05/07 00:48:40;;;;;;;9.52;6.05;;;13.20;48.10;;;;;;5089061;28;20463;-58
2022/05/07 00:53:51;;;;;;;11.13;7.07;;;13.20;48.00;;;;;;5089304;28;20081;-57
2022/05/07 00:56:17;;;;;;;11.80;7.10;;;13.20;48.00;;;;;;5093820;28;20376;-58
2022/05/07 00:58:44;;;;;;;11.82;7.53;;;13.20;48.00;;;;;;5093870;28;20028;-58
2022/05/07 01:01:10;;;;;;;10.10;7.00;;;13.20;47.90;;;;;;5076062;28;20111;-57
2022/05/07 01:03:38;;;;;;;13.15;8.38;;;13.20;48.40;;;;;;5093025;28;20428;-57
2022/05/07 01:06:04;;;;;;;12.68;8.05;;;13.20;47.90;;;;;;5093712;28;20040;-58
2022/05/07 01:08:33;;;;;;;10.38;7.40;;;13.20;47.80;;;;;;5089278;28;20024;-57
2022/05/07 01:11:06;;;;;;;10.80;7.72;;;13.20;47.80;;;;;;5082537;28;20102;-57
2022/05/07 01:13:32;;;;;;;12.25;7.95;;;13.20;47.70;;;;;;5073379;28;20029;-58
2022/05/07 01:15:58;;;;;;;10.73;8.18;;;13.20;47.70;;;;;;5076701;28;20028;-58
2022/05/07 01:18:24;;;;;;;11.38;7.80;;;13.20;47.70;;;;;;5090059;28;20040;-57
2022/05/07 01:20:50;;;;;;;12.35;8.77;;;13.20;47.60;;;;;;5093698;28;20016;-57
2022/05/07 01:23:16;;;;;;;10.93;8.40;;;13.20;47.50;;;;;;5093815;28;20020;-57
2022/05/07 01:25:41;;;;;;;13.55;8.40;;;13.20;47.50;;;;;;5082341;28;20024;-57
2022/05/07 01:28:07;;;;;;;15.02;9.15;;;13.20;47.50;;;;;;5073365;28;20028;-57
2022/05/07 01:30:36;;;;;;;11.50;8.32;;;13.20;47.50;;;;;;5073223;28;20103;-58
2022/05/07 01:33:02;;;;;;;13.20;9.40;;;13.20;47.50;;;;;;5089302;28;20054;-58
2022/05/07 01:35:27;;;;;;;13.48;9.32;;;13.20;47.40;;;;;;5093379;28;20110;-58
2022/05/07 01:37:53;;;;;;;12.13;8.57;;;13.20;47.40;;;;;;5088621;28;20020;-58
2022/05/07 01:40:19;;;;;;;12.35;8.73;;;13.20;47.10;;;;;;5096288;28;20022;-58
2022/05/07 01:42:44;;;;;;;13.38;9.07;;;13.20;47.20;;;;;;5093488;28;20020;-58
2022/05/07 01:45:10;;;;;;;12.63;9.02;;;13.20;47.20;;;;;;5093488;28;20482;-58
2022/05/07 01:50:24;;;;;;;11.75;9.57;;;13.10;47.30;;;;;;5075426;28;20027;-58
2022/05/07 01:52:50;;;;;;;15.55;10.43;;;13.10;47.30;;;;;;5072812;28;20028;-58
2022/05/07 01:55:16;;;;;;;14.70;10.32;;;13.10;47.20;;;;;;5072760;28;20473;-58
2022/05/07 01:57:41;;;;;;;13.15;9.38;;;13.10;47.30;;;;;;5072881;28;20024;-57
2022/05/07 02:00:08;;;;;;;12.90;9.98;;;13.10;47.20;;;;;;5079875;28;20024;-57
2022/05/07 02:02:34;;;;;;;13.57;11.02;;;13.00;46.90;;;;;;5092503;28;20032;-56
2022/05/07 02:05:00;;;;;;;14.70;10.30;;;13.00;47.00;;;;;;5092647;28;20060;-58
2022/05/07 02:07:26;;;;;;;14.52;10.52;;;13.00;46.90;;;;;;5090279;28;20035;-56
2022/05/07 02:09:52;;;;;;;14.82;10.63;;;13.00;47.00;;;;;;5071876;28;20032;-57
2022/05/07 02:12:18;;;;;;;16.02;11.35;;;13.00;47.10;;;;;;5072587;28;20099;-57
2022/05/07 02:14:43;;;;;;;16.08;11.50;;;13.00;47.20;;;;;;5085460;28;20065;-58
2022/05/07 02:17:09;;;;;;;14.10;10.38;;;13.00;47.20;;;;;;5081157;28;20164;-57
2022/05/07 02:19:35;;;;;;;15.70;11.00;;;13.00;47.20;;;;;;5090829;28;20048;-57
2022/05/07 02:22:07;;;;;;;13.48;8.88;;;13.00;47.30;;;;;;5092090;28;20032;-57
2022/05/07 02:24:33;;;;;;;13.15;9.63;;;13.00;47.40;;;;;;5077881;28;20032;-58
2022/05/07 02:26:59;;;;;;;13.75;8.90;;;13.00;48.20;;;;;;5082501;28;20505;-57
2022/05/07 02:29:25;;;;;;;14.45;10.25;;;12.90;47.70;;;;;;5092551;28;20031;-57
2022/05/07 02:32:06;;;;;;;13.55;9.98;;;12.80;47.70;;;;;;5091940;28;20299;-57
2022/05/07 02:34:36;;;;;;;15.40;10.77;;;12.70;47.90;;;;;;5087630;28;20036;-57
2022/05/07 02:37:04;;;;;;;15.27;10.87;;;12.60;48.10;;;;;;5090530;28;20085;-57
2022/05/07 02:39:32;;;;;;;16.20;10.60;;;12.60;48.30;;;;;;5083578;28;20051;-57
2022/05/07 02:44:42;;;;;;;15.00;10.80;;;12.60;48.50;;;;;;5082836;28;20020;-58
2022/05/07 02:47:08;;;;;;;16.58;11.05;;;12.70;48.50;;;;;;5073936;28;20029;-58
2022/05/07 02:49:34;;;;;;;14.05;10.23;;;12.70;48.70;;;;;;5072846;28;20070;-58
2022/05/07 02:52:00;;;;;;;15.05;11.35;;;12.70;48.80;;;;;;5089909;28;20021;-58
2022/05/07 02:54:28;;;;;;;17.15;11.85;;;12.70;49.10;;;;;;5092547;28;20081;-58
2022/05/07 02:56:55;;;;;;;16.00;10.38;;;12.70;49.10;;;;;;5073885;28;20102;-58
2022/05/07 02:59:21;;;;;;;14.57;10.70;;;12.70;49.30;;;;;;5092278;28;20028;-58
2022/05/07 03:01:47;;;;;;;14.82;10.70;;;12.80;49.40;;;;;;5092369;28;20070;-58
2022/05/07 03:04:12;;;;;;;15.38;10.43;;;12.80;49.10;;;;;;5092408;28;20441;-58
2022/05/07 03:06:38;;;;;;;14.27;10.68;;;12.80;49.00;;;;;;5090966;28;20085;-58
2022/05/07 03:09:04;;;;;;;13.02;9.07;;;12.90;49.10;;;;;;5088743;28;20040;-58
2022/05/07 03:11:33;;;;;;;14.70;9.13;;;12.90;48.90;;;;;;5072775;28;20028;-58
2022/05/07 03:14:00;;;;;;;11.68;8.95;;;12.90;48.90;;;;;;5071923;28;20103;-58
2022/05/07 03:16:26;;;;;;;12.50;8.75;;;12.90;49.30;;;;;;5072192;28;20036;-58
2022/05/07 03:18:52;;;;;;;10.57;7.93;;;12.90;49.50;;;;;;5077461;28;20505;-58
2022/05/07 03:21:17;;;;;;;13.27;9.00;;;12.90;49.50;;;;;;5093116;28;20051;-58
2022/05/07 03:23:44;;;;;;;13.60;9.02;;;12.80;49.40;;;;;;5086297;28;20021;-58
2022/05/07 03:26:11;;;;;;;14.05;9.05;;;12.80;49.30;;;;;;5091674;28;20032;-58
2022/05/07 03:28:37;;;;;;;13.38;9.57;;;12.80;49.40;;;;;;5095161;28;20028;-58
2022/05/07 03:31:03;;;;;;;13.63;9.90;;;12.90;49.30;;;;;;5079894;28;20388;-57
2022/05/07 03:33:29;;;;;;;13.80;10.40;;;12.90;49.20;;;;;;5075595;28;20036;-58
2022/05/07 03:35:54;;;;;;;14.27;9.25;;;13.00;49.40;;;;;;5076664;28;20115;-58
2022/05/07 03:38:20;;;;;;;15.32;9.90;;;13.10;49.40;;;;;;5092812;28;20020;-56
2022/05/07 03:40:46;;;;;;;12.63;8.90;;;13.30;49.40;;;;;;5087468;28;20070;-56
2022/05/07 03:43:11;;;;;;;11.73;9.25;;;13.60;49.60;;;;;;5095531;28;20058;-56
2022/05/07 03:45:37;;;;;;;13.45;9.20;;;13.80;49.40;;;;;;5092172;28;20472;-58
2022/05/07 03:48:03;;;;;;;11.30;8.23;;;14.10;49.30;;;;;;5057535;28;20028;-56
2022/05/07 03:50:29;;;;;;;11.40;9.05;;;14.40;49.00;;;;;;5082349;28;20032;-56
2022/05/07 03:55:41;;;;;;;12.35;8.90;;;15.10;48.60;;;;;;5095560;28;20081;-56
2022/05/07 03:58:17;;;;;;;12.73;9.25;;;15.70;48.70;;;;;;5094677;28;20024;-56
2022/05/07 04:00:43;;;;;;;15.05;9.43;;;16.40;48.00;;;;;;5095509;28;20028;-56
2022/05/07 04:03:13;;;;;;;12.43;8.13;;;17.20;47.20;;;;;;5088938;28;20078;-56
2022/05/07 04:05:39;;;;;;;10.90;8.07;;;18.20;46.00;;;;;;5056616;28;20120;-56
2022/05/07 04:08:05;;;;;;;14.07;8.40;;;19.30;45.40;;;;;;5094570;28;20029;-56
2022/05/07 04:10:31;;;;;;;10.40;8.20;;;20.30;43.80;;;;;;5092504;28;20110;-56
2022/05/07 04:12:57;;;;;;;10.45;7.97;;;21.20;42.70;;;;;;5095257;28;20033;-55
2022/05/07 04:15:23;;;;;;;12.10;8.45;;;22.20;41.70;;;;;;5084357;28;20484;-56
2022/05/07 04:17:50;;;;;;;12.00;8.25;;;23.00;40.70;;;;;;5086373;28;20515;-57
2022/05/07 04:20:16;;;;;;;11.55;7.88;;;23.80;40.00;;;;;;5074564;28;20402;-57
2022/05/07 04:22:42;;;;;;;11.18;7.65;;;24.30;38.90;;;;;;5093263;28;20039;-57
2022/05/07 04:25:10;;;;;;;12.40;8.02;;;24.50;38.00;;;;;;5095213;28;20032;-57
2022/05/07 04:27:36;;;;;;;11.55;8.10;;;24.40;37.50;;;;;;5087460;28;20031;-57
2022/05/07 04:30:02;;;;;;;11.32;7.68;;;24.30;37.60;;;;;;5074680;28;20029;-57
2022/05/07 04:32:28;;;;;;;9.90;7.43;;;24.30;37.60;;;;;;5080398;28;20128;-57
2022/05/07 04:34:55;;;;;;;8.68;6.95;;;24.50;37.30;;;;;;5094266;28;20028;-56
2022/05/07 04:37:25;;;;;;;9.82;6.72;;;24.60;36.80;;;;;;5088288;28;20044;-57
2022/05/07 04:39:51;;;;;;;;;;;24.50;36.80;;;;;;5089281;28;20116;-55
2022/05/07 04:42:17;;;;;;;10.20;6.60;;;24.40;36.40;;;;;;5094913;28;19904;-57
2022/05/07 04:44:43;;;;;;;8.73;6.90;;;24.60;37.20;;;;;;5092709;28;20568;-57
2022/05/07 04:47:09;;;;;;;9.65;7.35;;;24.80;36.70;;;;;;5083517;28;20024;-57
2022/05/07 04:49:36;;;;;;;10.18;7.75;;;25.00;36.40;;;;;;5075336;28;20107;-57
2022/05/07 04:52:05;;;;;;;8.43;6.78;;;25.30;36.20;;;;;;5093439;28;20028;-57
2022/05/07 04:54:32;;;;;;;7.97;6.05;;;25.60;35.80;;;;;;5094551;28;20369;-57
2022/05/07 04:56:58;;;;;;;10.18;7.05;;;25.60;35.30;;;;;;5093783;28;20379;-56
2022/05/07 04:59:24;;;;;;;10.25;7.43;;;25.60;35.30;;;;;;5094650;28;20031;-57
2022/05/07 05:01:50;;;;;;;11.10;7.50;;;25.70;35.20;;;;;;5094230;28;20032;-56
2022/05/07 05:04:15;;;;;;;12.45;8.40;;;25.60;35.00;;;;;;5093156;28;20510;-57
2022/05/07 05:06:41;;;;;;;8.77;6.72;;;25.50;34.90;;;;;;5091759;28;20039;-57
2022/05/07 05:09:08;;;;;;;8.48;7.13;;;25.30;35.00;;;;;;5091401;28;20506;-57
2022/05/07 05:11:37;;;;;;;15.27;7.38;;;25.10;34.70;;;;;;5094130;28;20099;-57
2022/05/07 05:15:01;;;;;;;9.77;7.03;;;24.90;34.90;;;;;;5093848;28;20027;-57
2022/05/07 05:16:49;;;;;;;9.43;7.28;;;24.60;35.00;;;;;;5093634;28;20040;-57
2022/05/07 05:19:15;;;;;;;13.63;7.95;;;24.30;35.00;;;;;;5092929;28;20028;-56
2022/05/07 05:21:41;;;;;;;10.20;6.82;;;24.00;35.10;;;;;;5080399;28;20048;-56
2022/05/07 05:24:08;;;;;;;9.00;7.30;;;23.90;35.30;;;;;;5080085;28;20073;-57
2022/05/07 05:26:33;;;;;;;11.20;8.05;;;23.90;35.20;;;;;;5093666;28;20035;-57
2022/05/07 05:28:59;;;;;;;11.85;8.15;;;24.00;35.80;;;;;;5074651;28;20443;-56
2022/05/07 05:31:25;;;;;;;11.63;7.97;;;23.90;36.10;;;;;;5073376;28;20095;-56
2022/05/07 05:33:50;;;;;;;13.65;8.38;;;23.80;36.40;;;;;;5087891;28;20032;-56
2022/05/07 05:36:16;;;;;;;12.38;7.05;;;23.60;36.80;;;;;;5093428;28;20028;-56
2022/05/07 05:38:42;;;;;;;10.68;7.65;;;23.30;36.90;;;;;;5091972;28;20037;-56
2022/05/07 05:41:07;;;;;;;11.85;7.40;;;23.00;37.30;;;;;;5082532;28;20484;-56
2022/05/07 05:43:33;;;;;;;11.05;7.93;;;22.70;37.70;;;;;;5093516;28;20421;-55
2022/05/07 05:46:01;;;;;;;9.38;7.18;;;22.30;38.10;;;;;;5093658;28;20502;-54
2022/05/07 05:48:30;;;;;;;10.95;7.65;;;21.90;38.40;;;;;;5088748;28;20444;-56
2022/05/07 05:50:57;;;;;;;9.98;6.97;;;21.50;38.90;;;;;;5091976;28;20632;-55
2022/05/07 05:53:23;;;;;;;9.18;7.40;;;21.00;39.20;;;;;;5105684;28;20064;-56
2022/05/07 05:55:49;;;;;;;11.55;7.95;;;20.60;39.80;;;;;;5076452;28;20056;-56
2022/05/07 05:58:15;;;;;;;11.63;7.20;;;20.10;40.30;;;;;;5090063;28;20020;-56
2022/05/07 06:00:41;;;;;;;9.43;6.50;;;19.60;40.60;;;;;;5093143;28;20479;-55
2022/05/07 06:03:07;;;;;;;10.85;7.88;;;19.20;41.20;;;;;;5092433;28;20023;-56
2022/05/07 06:05:33;;;;;;;9.82;7.35;;;18.80;42.20;;;;;;5077785;28;20028;-55
2022/05/07 06:07:59;;;;;;;9.40;7.28;;;18.50;42.70;;;;;;5080199;28;20510;-56
2022/05/07 06:10:25;;;;;;;10.60;8.13;;;18.20;43.40;;;;;;5083096;28;20032;-56
2022/05/07 06:12:51;;;;;;;9.50;6.20;;;18.00;44.10;;;;;;5083142;28;20394;-56
2022/05/07 06:15:17;;;;;;;10.73;6.60;;;18.00;44.60;;;;;;5087352;28;20032;-55
2022/05/07 06:17:43;;;;;;;10.45;7.30;;;18.00;45.40;;;;;;5072290;28;20021;-55
2022/05/07 06:20:12;;;;;;;11.98;7.25;;;17.90;45.80;;;;;;5086249;28;20483;-56
2022/05/07 06:22:38;;;;;;;10.18;7.75;;;17.80;46.00;;;;;;5089530;28;20028;-54
2022/05/07 06:27:48;;;;;;;10.07;6.95;;;17.60;46.90;;;;;;5081513;28;20063;-56
2022/05/07 06:30:14;;;;;;;9.15;6.93;;;17.60;47.10;;;;;;5072675;28;20380;-56
2022/05/07 06:32:41;;;;;;;9.88;7.60;;;17.60;47.30;;;;;;5091311;28;20024;-55
2022/05/07 06:35:08;;;;;;;10.32;7.47;;;17.60;47.60;;;;;;5084921;28;20035;-56
2022/05/07 06:37:35;;;;;;;11.23;7.68;;;17.60;47.90;;;;;;5092552;28;20023;-57
2022/05/07 06:40:03;;;;;;;11.13;8.55;;;17.60;48.20;;;;;;5091707;28;20016;-57
2022/05/07 06:42:29;;;;;;;11.50;8.25;;;17.50;48.60;;;;;;5085973;28;20020;-56
2022/05/07 06:44:55;;;;;;;11.00;7.95;;;17.60;49.10;;;;;;5075275;28;20380;-57
2022/05/07 06:47:20;;;;;;;11.05;7.80;;;17.70;49.30;;;;;;5088527;28;20541;-57
2022/05/07 06:49:46;;;;;;;11.23;7.35;;;17.60;49.20;;;;;;5091410;28;20025;-55
2022/05/07 06:52:12;;;;;;;11.82;7.97;;;17.60;49.50;;;;;;5090152;28;20052;-57
2022/05/07 06:54:38;;;;;;;11.43;7.82;;;17.50;50.00;;;;;;5080208;28;20468;-57
2022/05/07 06:57:04;;;;;;;11.48;7.40;;;17.40;50.50;;;;;;5076223;28;20025;-57
2022/05/07 06:59:30;;;;;;;11.98;7.78;;;17.50;50.70;;;;;;5076698;28;20388;-57
2022/05/07 07:01:57;;;;;;;12.98;7.93;;;17.50;50.90;;;;;;5079969;28;20032;-57
2022/05/07 07:04:24;;;;;;;10.80;7.43;;;17.60;51.50;;;;;;5093762;28;20387;-57
2022/05/07 07:06:50;;;;;;;11.57;8.40;;;17.60;51.60;;;;;;5089123;28;20096;-56
2022/05/07 07:09:16;;;;;;;10.07;7.35;;;17.60;51.80;;;;;;5087233;28;20128;-57
2022/05/07 07:11:42;;;;;;;11.18;7.38;;;17.50;51.70;;;;;;5089447;28;20406;-57
2022/05/07 07:14:21;;;;;;;12.63;8.27;;;17.40;51.80;;;;;;5093916;28;20028;-57
2022/05/07 07:16:46;;;;;;;11.63;7.13;;;17.30;52.30;;;;;;5092525;28;20111;-57
2022/05/07 07:19:16;;;;;;;14.23;9.55;;;17.30;52.70;;;;;;5092769;28;20103;-57
2022/05/07 07:21:43;;;;;;;9.93;7.40;;;17.20;53.10;;;;;;5063801;28;20411;-57
2022/05/07 07:24:09;;;;;;;11.93;8.90;;;17.20;53.50;;;;;;5089808;28;20472;-57
2022/05/07 07:26:34;;;;;;;13.35;8.20;;;17.20;53.60;;;;;;5089461;28;20032;-57
2022/05/07 07:29:00;;;;;;;10.57;7.75;;;17.20;54.00;;;;;;5089091;28;20043;-58
2022/05/07 07:31:26;;;;;;;12.40;8.30;;;17.20;54.30;;;;;;5088811;28;20020;-57
2022/05/07 07:33:51;;;;;;;11.43;7.60;;;17.30;54.60;;;;;;5086816;28;20036;-58
2022/05/07 07:36:19;;;;;;;10.30;7.70;;;17.40;54.80;;;;;;5067250;28;20036;-57
2022/05/07 07:38:45;;;;;;;9.85;7.38;;;17.40;54.90;;;;;;5055799;28;20037;-57
2022/05/07 07:41:10;;;;;;;9.95;7.15;;;17.40;55.00;;;;;;5087698;28;20536;-57
2022/05/07 07:43:39;;;;;;;9.95;6.75;;;17.30;54.90;;;;;;5093860;28;20016;-57
2022/05/07 07:48:52;;;;;;;8.35;7.00;;;17.10;55.60;;;;;;5093299;28;20035;-57
2022/05/07 07:51:18;;;;;;;9.02;6.75;;;17.10;55.50;;;;;;5094130;28;20036;-57
2022/05/07 07:53:46;;;;;;;9.15;6.97;;;17.00;55.80;;;;;;5094501;28;20073;-57
2022/05/07 07:56:13;;;;;;;11.05;7.00;;;16.90;55.90;;;;;;5085836;28;20090;-58
2022/05/07 07:58:39;;;;;;;9.43;6.97;;;16.90;56.00;;;;;;5092241;28;20028;-58
2022/05/07 08:01:05;;;;;;;8.02;6.30;;;16.80;56.00;;;;;;5094348;28;20131;-57
2022/05/07 08:03:34;;;;;;;10.27;6.75;;;16.80;56.20;;;;;;5092595;28;20034;-58
2022/05/07 08:05:59;;;;;;;10.30;6.97;;;16.80;56.80;;;;;;5072447;28;20123;-56
2022/05/07 08:13:55;;;;;;;8.43;6.97;;;16.70;57.20;;;;;;5076336;28;20050;-57
2022/05/07 08:16:22;;;;;;;8.32;6.60;;;16.70;57.70;;;;;;5089219;28;20028;-58
2022/05/07 08:18:49;;;;;;;8.95;6.18;;;16.70;57.80;;;;;;5094589;28;20357;-57
2022/05/07 08:21:15;;;;;;;8.13;5.57;;;16.70;57.90;;;;;;5079654;28;20040;-58
2022/05/07 08:23:41;;;;;;;8.10;5.85;;;16.70;57.80;;;;;;5092756;28;20020;-59
2022/05/07 08:26:08;;;;;;;8.40;5.72;;;16.70;57.80;;;;;;5092570;28;20038;-59
2022/05/07 08:28:35;;;;;;;8.77;5.78;;;16.70;57.90;;;;;;5091186;28;20028;-58
2022/05/07 08:31:02;;;;;;;7.53;5.47;;;16.70;57.80;;;;;;5089054;28;20519;-59
2022/05/07 08:33:29;;;;;;;7.97;5.72;;;16.70;58.50;;;;;;5087945;28;20548;-58
2022/05/07 08:35:55;;;;;;;7.13;5.80;;;16.60;58.00;;;;;;5092410;28;20251;-59
2022/05/07 08:38:20;;;;;;;7.45;5.18;;;16.60;58.70;;;;;;5094019;28;20028;-59
2022/05/07 08:40:46;;;;;;;5.90;4.68;;;16.60;59.10;;;;;;5089756;28;20035;-59
2022/05/07 08:43:14;;;;;;;7.28;5.25;;;16.60;59.00;;;;;;5091555;28;20077;-58
2022/05/07 08:45:40;;;;;;;7.03;4.85;;;16.50;59.00;;;;;;5086475;28;20043;-58
2022/05/07 08:48:07;;;;;;;6.10;4.70;;;16.50;59.60;;;;;;5088506;28;20388;-57
2022/05/07 08:50:33;;;;;;;5.85;4.50;;;16.50;59.80;;;;;;5082219;28;20031;-58
2022/05/07 08:52:58;;;;;;;7.63;4.65;;;16.50;60.10;;;;;;5087332;28;20032;-58
2022/05/07 08:55:24;;;;;;;5.97;4.75;;;16.50;60.30;;;;;;5089980;28;20080;-58
2022/05/07 08:57:52;;;;;;;6.57;4.68;;;16.50;60.40;;;;;;5092335;28;20040;-58
2022/05/07 09:00:20;;;;;;;6.03;4.50;;;16.50;60.90;;;;;;5084790;28;20028;-58
2022/05/07 09:02:51;;;;;;;5.28;4.30;;;16.50;60.80;;;;;;5085015;28;20476;-58
2022/05/07 09:05:19;;;;;;;5.60;3.78;;;16.50;60.50;;;;;;5075175;28;20051;-57
2022/05/07 09:07:57;;;;;;;11.25;4.45;;;16.50;60.30;;;;;;5077978;28;20031;-58
2022/05/07 09:10:33;;;;;;;5.53;4.43;;;16.50;60.40;;;;;;5083280;28;20515;-55
2022/05/07 09:13:13;;;;;;;6.88;4.00;;;16.40;60.70;;;;;;5084016;28;20089;-55
2022/05/07 09:15:49;;;;;;;5.63;3.95;;;16.30;60.70;;;;;;5079245;28;20039;-62
2022/05/07 09:18:16;;;;;;;6.20;4.15;;;16.30;61.80;;;;;;5076344;28;20361;-62
2022/05/07 09:20:41;;;;;;;4.63;3.60;;;16.30;61.20;;;;;;5078695;28;20067;-57
2022/05/07 09:23:10;;;;;;;5.70;3.97;;;16.20;60.90;;;;;;5086930;28;20028;-57
2022/05/07 09:25:45;;;;;;;5.72;4.10;;;16.20;60.50;;;;;;5083482;28;20031;-58
2022/05/07 09:28:11;;;;;;;5.43;3.90;;;16.10;60.90;;;;;;5084468;28;20028;-57
2022/05/07 09:30:38;;;;;;;7.22;4.68;;;16.10;61.00;;;;;;5081727;28;20026;-58
2022/05/07 09:33:06;;;;;;;5.60;4.18;;;16.00;60.80;;;;;;5079178;28;20039;-58
2022/05/07 09:35:51;;;;;;;6.13;4.53;;;16.00;60.90;;;;;;5085174;28;20075;-58
2022/05/07 09:38:24;;;;;;;6.55;4.65;;;16.00;60.60;;;;;;5083821;28;20031;-57
2022/05/07 09:40:51;;;;;;;7.22;4.35;;;16.00;60.20;;;;;;5085446;28;20021;-58
2022/05/07 09:43:17;;;;;;;4.88;4.30;;;16.00;59.80;;;;;;5093456;28;20395;-57
2022/05/07 09:45:44;;;;;;;5.70;4.00;;;16.00;60.30;;;;;;5084410;28;20040;-57
2022/05/07 09:48:12;;;;;;;5.65;3.88;;;16.00;60.30;;;;;;5086332;28;20488;-58
2022/05/07 09:58:36;;;;;;;5.40;3.83;;;16.00;60.10;;;;;;5087187;28;20035;-58
2022/05/07 10:01:37;;;;;;;6.53;4.38;;;16.00;59.60;;;;;;5089243;28;20028;-58
2022/05/07 10:04:06;;;;;;;;;;;15.90;60.00;;;;;;5083816;28;20047;-57
2022/05/07 10:07:00;;;;;;;6.38;4.47;;;15.90;60.10;;;;;;5082235;28;20272;-57
2022/05/07 10:09:41;;;;;;;5.15;4.00;;;15.90;59.70;;;;;;5081380;28;20024;-58
2022/05/07 10:12:08;;;;;;;5.68;3.90;;;15.90;59.50;;;;;;5086598;28;20031;-58
2022/05/07 10:14:34;;;;;;;5.55;4.18;;;15.90;59.70;;;;;;5082711;28;20114;-58
2022/05/07 10:17:07;;;;;;;6.07;3.80;;;15.90;59.80;;;;;;5089262;28;20118;-58
2022/05/07 10:19:44;;;;;;;5.57;4.15;;;15.90;59.70;;;;;;5082998;28;20065;-58
2022/05/07 10:22:24;;;;;;;4.93;3.78;;;15.90;59.80;;;;;;5078411;28;20115;-58
2022/05/07 10:25:09;;;;;;;4.97;3.88;;;15.90;59.90;;;;;;5078542;28;20028;-59
2022/05/07 10:27:38;;;;;;;6.03;4.22;;;15.90;59.90;;;;;;5086064;28;20107;-58
2022/05/07 10:30:04;;;;;;;5.63;3.72;;;15.90;59.50;;;;;;5082424;28;20038;-58
2022/05/07 10:32:29;;;;;;;5.57;3.80;;;15.90;58.90;;;;;;5088896;28;20527;-57
2022/05/07 10:34:56;;;;;;;6.15;3.88;;;16.00;58.60;;;;;;5086288;28;20020;-58
2022/05/07 10:37:22;;;;;;;5.22;3.85;;;16.00;58.90;;;;;;5080306;28;20085;-58
2022/05/07 10:39:54;;;;;;;5.63;3.80;;;16.00;58.90;;;;;;5085765;28;20031;-57
2022/05/07 10:42:21;;;;;;;4.07;3.63;;;16.00;59.10;;;;;;5077630;28;20418;-58
2022/05/07 10:44:48;;;;;;;4.63;3.40;;;16.00;58.50;;;;;;5083850;28;20024;-58
2022/05/07 10:47:17;;;;;;;5.13;3.20;;;16.00;58.40;;;;;;5088515;28;20166;-58
2022/05/07 10:49:54;;;;;;;4.72;3.13;;;16.00;58.10;;;;;;5082455;28;20111;-58
2022/05/07 10:52:31;;;;;;;5.35;3.50;;;16.10;58.50;;;;;;5085307;28;20487;-58
2022/05/07 10:55:26;;;;;;;4.07;3.20;;;16.10;58.30;;;;;;5083889;28;20479;-58
2022/05/07 10:57:55;;;;;;;5.50;3.80;;;16.10;59.00;;;;;;5082229;28;20132;-58
2022/05/07 11:00:22;;;;;;;4.18;3.22;;;16.10;58.50;;;;;;5083223;28;20042;-58
2022/05/07 11:02:49;;;;;;;3.95;3.10;;;16.10;59.00;;;;;;5088465;28;20361;-58
2022/05/07 11:05:16;;;;;;;4.72;2.97;;;16.10;58.60;;;;;;5085246;28;20086;-58
2022/05/07 11:07:43;;;;;;;3.80;3.00;;;16.10;58.60;;;;;;5082819;28;20029;-58
2022/05/07 11:10:12;;;;;;;3.50;3.15;;;16.10;58.70;;;;;;5082114;28;20767;-58
2022/05/07 11:12:39;;;;;;;4.30;3.10;;;16.10;59.00;;;;;;5076343;28;20834;-58
2022/05/07 11:15:06;;;;;;;4.20;2.92;;;16.10;58.90;;;;;;5080686;28;20032;-58
2022/05/07 11:17:40;;;;;;;4.63;3.13;;;16.20;59.30;;;;;;5087189;28;20025;-58
2022/05/07 11:20:07;;;;;;;4.55;2.90;;;16.20;59.20;;;;;;5079795;28;20135;-58
2022/05/07 11:22:33;;;;;;;4.22;3.08;;;16.20;58.90;;;;;;5083114;28;20024;-58
2022/05/07 11:25:05;;;;;;;3.50;2.70;;;16.20;58.60;;;;;;5077382;28;20062;-58
2022/05/07 11:27:34;;;;;;;3.90;2.83;;;16.30;58.40;;;;;;5087270;28;20300;-58
2022/05/07 11:30:01;;;;;;;4.05;3.08;;;16.30;58.30;;;;;;5081879;28;20056;-58
2022/05/07 11:32:41;;;;;;;3.38;3.00;;;16.30;58.00;;;;;;5087105;28;20024;-58
2022/05/07 11:35:08;;;;;;;4.90;2.83;;;16.40;58.10;;;;;;5079173;28;20036;-58
2022/05/07 11:37:41;;;;;;;6.18;3.75;;;16.40;58.40;;;;;;5079041;28;20020;-58
2022/05/07 11:40:09;;;;;;;2.70;2.50;;;16.50;58.40;;;;;;5083497;28;20054;-58
2022/05/07 11:42:35;;;;;;;3.25;2.30;;;16.50;58.50;;;;;;5084262;28;20510;-58
2022/05/07 11:45:26;;;;;;;3.60;2.50;;;16.50;57.80;;;;;;5085829;28;20024;-58
2022/05/07 11:47:59;;;;;;;2.97;2.67;;;16.60;57.90;;;;;;5083687;28;20364;-57
2022/05/07 11:50:30;;;;;;;2.97;2.50;;;16.60;57.60;;;;;;5084794;28;20036;-58
2022/05/07 11:52:57;;;;;;;3.58;2.63;;;16.60;57.60;;;;;;5087910;28;20396;-58
2022/05/07 11:55:28;;;;;;;2.70;2.50;;;16.50;57.70;;;;;;5084603;28;20028;-58
2022/05/07 11:57:58;;;;;;;2.35;2.15;;;16.50;57.40;;;;;;5080838;28;20047;-58
2022/05/07 12:00:28;;;;;;;2.33;2.13;;;16.60;57.50;;;;;;5092623;28;20028;-58
2022/05/07 12:03:00;;;;;;;3.38;2.30;;;16.50;57.60;;;;;;5087230;28;20027;-58
2022/05/07 12:05:37;;;;;;;4.72;2.55;;;16.60;57.60;;;;;;5084405;28;20024;-58
2022/05/07 12:08:22;;;;;;;2.50;2.20;;;16.50;57.90;;;;;;5077361;28;20043;-58
2022/05/07 12:10:53;;;;;;;3.90;2.30;;;16.50;56.60;;;;;;5082129;28;20042;-57
2022/05/07 12:13:20;;;;;;;2.95;2.22;;;16.50;56.70;;;;;;5078932;28;20048;-58
2022/05/07 12:18:30;;;;;;;5.07;2.30;;;16.50;56.60;;;;;;5082962;28;20549;-58
2022/05/07 12:20:57;;;;;;;2.65;1.83;;;16.50;57.00;;;;;;5080706;28;20169;-58
2022/05/07 12:31:37;;;;;;;2.28;2.05;;;16.40;56.70;;;;;;5080089;28;20093;-58
2022/05/07 12:34:04;;;;;;;2.22;2.03;;;16.40;56.50;;;;;;5082567;28;20659;-59
2022/05/07 12:36:31;;;;;;;2.83;2.25;;;16.40;56.30;;;;;;5083769;28;20107;-58
2022/05/07 12:38:59;;;;;;;2.30;2.00;;;16.40;56.30;;;;;;5067797;28;20526;-58
2022/05/07 12:41:31;;;;;;;4.28;2.10;;;16.40;56.60;;;;;;5078792;28;20037;-58
2022/05/07 12:44:00;;;;;;;2.65;2.00;;;16.40;56.80;;;;;;5085137;28;20024;-58
2022/05/07 12:46:27;;;;;;;2.25;2.05;;;16.40;57.00;;;;;;5083612;28;20043;-58
2022/05/07 12:48:53;;;;;;;1.85;1.70;;;16.40;57.10;;;;;;5085593;28;20026;-58
2022/05/07 12:51:19;;;;;;;2.47;2.03;;;16.40;57.00;;;;;;5088521;28;20046;-59
2022/05/07 12:53:45;;;;;;;2.70;2.20;;;16.40;56.60;;;;;;5085741;28;20028;-58
2022/05/07 12:56:10;;;;;;;2.38;2.05;;;16.50;56.40;;;;;;5081472;28;20039;-58
2022/05/07 12:58:36;;;;;;;5.80;2.20;;;16.50;55.70;;;;;;5078789;28;20083;-58
2022/05/07 13:01:02;;;;;;;2.92;1.88;;;16.60;54.80;;;;;;5084111;28;20035;-58
2022/05/07 13:03:28;;;;;;;2.75;2.15;;;16.60;54.50;;;;;;5081747;28;20031;-58
2022/05/07 13:05:57;;;;;;;2.83;2.00;;;16.70;54.50;;;;;;5081998;28;20038;-59
2022/05/07 13:08:22;;;;;;;2.58;2.30;;;16.70;53.70;;;;;;5087261;28;20035;-58
2022/05/07 13:10:48;;;;;;;2.13;1.92;;;16.70;53.80;;;;;;5085539;28;20488;-58
2022/05/07 13:13:17;;;;;;;3.03;1.98;;;16.70;53.90;;;;;;5077169;28;20032;-56
2022/05/07 13:15:42;;;;;;;2.03;1.83;;;16.70;54.50;;;;;;5075994;28;20107;-57
2022/05/07 13:18:08;;;;;;;4.20;2.00;;;16.70;55.10;;;;;;5079721;28;20165;-57
2022/05/07 13:20:34;;;;;;;2.75;2.03;;;16.70;55.40;;;;;;5082077;28;20040;-57
2022/05/07 13:22:59;;;;;;;2.45;2.22;;;16.70;55.40;;;;;;5085650;28;20525;-57
2022/05/07 13:25:25;;;;;;;2.30;1.88;;;16.70;55.50;;;;;;5083310;28;20046;-58
2022/05/07 13:27:51;;;;;;;7.32;2.33;;;16.70;55.40;;;;;;5064592;28;20065;-58
2022/05/07 13:30:17;;;;;;;3.53;1.90;;;16.70;54.70;;;;;;5086825;28;20066;-58